NGN42P EDDL-EDDH
Flight info
| Callsign | NGN42P |
|---|---|
| Flight time | 0h 39m |
| Altitude | 33000 |
| Route | MEVEL1Z/05R MEVEL Y850 BASUM/N0423F320 Y850 PIXUR/N0420F310 Y850 MUBZI M105 RIBSO RIBSO7A |
| Aircraft | A320/M-SDE3FGHIRWY/LB1 |
Departure
| Time | 2026-05-07 18:13 |
|---|---|
| Airport | Düsseldorf Airport (EDDL) |
Arrival
| Time | 2026-05-07 18:53 |
|---|---|
| Airport | Hamburg Helmut Schmidt Airport (EDDH) |
| Time | Latitude | Longitude | Altitude | Speed | Heading |
|---|---|---|---|---|---|
| 2026-05-07 17:50 | 51.28041 | 6.76219 | 115 ft | 0 kts | 163° |
| 2026-05-07 18:06 | 51.28042 | 6.76219 | 91 ft | 1 kts | 163° |
| 2026-05-07 18:07 | 51.28064 | 6.76208 | 113 ft | 4 kts | 163° |
| 2026-05-07 18:07 | 51.28083 | 6.76199 | 116 ft | 3 kts | 162° |
| 2026-05-07 18:07 | 51.28105 | 6.76185 | 118 ft | 4 kts | 167° |
| 2026-05-07 18:07 | 51.28120 | 6.76189 | 115 ft | 4 kts | 217° |
| 2026-05-07 18:08 | 51.28118 | 6.76187 | 115 ft | 0 kts | 235° |
| 2026-05-07 18:10 | 51.28118 | 6.76186 | 115 ft | 1 kts | 235° |
| 2026-05-07 18:11 | 51.28096 | 6.76136 | 117 ft | 8 kts | 233° |
| 2026-05-07 18:11 | 51.28079 | 6.76081 | 117 ft | 9 kts | 265° |
| 2026-05-07 18:11 | 51.28093 | 6.75942 | 117 ft | 12 kts | 238° |
| 2026-05-07 18:11 | 51.28039 | 6.75828 | 117 ft | 14 kts | 233° |
| 2026-05-07 18:12 | 51.27973 | 6.75691 | 115 ft | 17 kts | 233° |
| 2026-05-07 18:12 | 51.27960 | 6.75560 | 115 ft | 14 kts | 315° |
| 2026-05-07 18:12 | 51.28047 | 6.75484 | 115 ft | 14 kts | 337° |
| 2026-05-07 18:12 | 51.28118 | 6.75528 | 115 ft | 8 kts | 51° |
| 2026-05-07 18:13 | 51.28197 | 6.75691 | 115 ft | 46 kts | 53° |
| 2026-05-07 18:13 | 51.28533 | 6.76401 | 116 ft | 111 kts | 53° |
| 2026-05-07 18:13 | 51.29099 | 6.77599 | 210 ft | 149 kts | 53° |
| 2026-05-07 18:13 | 51.29728 | 6.78951 | 786 ft | 155 kts | 53° |
| 2026-05-07 18:14 | 51.30376 | 6.80368 | 1426 ft | 160 kts | 54° |
| 2026-05-07 18:14 | 51.31059 | 6.81845 | 1942 ft | 174 kts | 53° |
| 2026-05-07 18:14 | 51.31832 | 6.83472 | 2237 ft | 197 kts | 53° |
| 2026-05-07 18:14 | 51.32717 | 6.85292 | 2620 ft | 217 kts | 52° |
| 2026-05-07 18:15 | 51.33705 | 6.87291 | 3050 ft | 241 kts | 52° |
| 2026-05-07 18:15 | 51.34806 | 6.89440 | 3759 ft | 255 kts | 42° |
| 2026-05-07 18:15 | 51.35811 | 6.90500 | 4375 ft | 259 kts | 22° |
| 2026-05-07 18:15 | 51.37568 | 6.91174 | 5388 ft | 260 kts | 9° |
| 2026-05-07 18:16 | 51.39365 | 6.91669 | 6365 ft | 264 kts | 8° |
| 2026-05-07 18:16 | 51.41173 | 6.92137 | 7236 ft | 269 kts | 8° |
| 2026-05-07 18:16 | 51.43035 | 6.92613 | 8090 ft | 274 kts | 8° |
| 2026-05-07 18:16 | 51.44890 | 6.93461 | 8924 ft | 282 kts | 21° |
| 2026-05-07 18:17 | 51.46718 | 6.94675 | 9764 ft | 287 kts | 21° |
| 2026-05-07 18:17 | 51.48593 | 6.95929 | 10387 ft | 300 kts | 21° |
| 2026-05-07 18:17 | 51.50595 | 6.97272 | 10655 ft | 324 kts | 21° |
| 2026-05-07 18:17 | 51.52715 | 6.98700 | 11160 ft | 335 kts | 21° |
| 2026-05-07 18:18 | 51.54883 | 7.00165 | 11869 ft | 340 kts | 21° |
| 2026-05-07 18:18 | 51.57077 | 7.01645 | 12605 ft | 344 kts | 21° |
| 2026-05-07 18:18 | 51.59296 | 7.03142 | 13347 ft | 348 kts | 21° |
| 2026-05-07 18:18 | 51.61542 | 7.04661 | 14073 ft | 352 kts | 21° |
| 2026-05-07 18:19 | 51.63814 | 7.06199 | 14738 ft | 356 kts | 21° |
| 2026-05-07 18:19 | 51.66104 | 7.07751 | 15389 ft | 359 kts | 21° |
| 2026-05-07 18:19 | 51.68420 | 7.09322 | 16044 ft | 362 kts | 21° |
| 2026-05-07 18:19 | 51.70750 | 7.10905 | 16700 ft | 365 kts | 21° |
| 2026-05-07 18:20 | 51.73106 | 7.12506 | 17356 ft | 369 kts | 21° |
| 2026-05-07 18:20 | 51.75483 | 7.14124 | 18016 ft | 372 kts | 21° |
| 2026-05-07 18:20 | 51.77883 | 7.15760 | 18629 ft | 376 kts | 21° |
| 2026-05-07 18:20 | 51.80306 | 7.17413 | 19214 ft | 379 kts | 21° |
| 2026-05-07 18:21 | 51.82752 | 7.19083 | 19810 ft | 383 kts | 22° |
| 2026-05-07 18:21 | 51.84852 | 7.20865 | 20334 ft | 387 kts | 32° |
| 2026-05-07 18:21 | 51.87090 | 7.23324 | 20922 ft | 391 kts | 33° |
| 2026-05-07 18:21 | 51.89346 | 7.25835 | 21493 ft | 394 kts | 33° |
| 2026-05-07 18:22 | 51.91614 | 7.28365 | 22046 ft | 398 kts | 33° |
| 2026-05-07 18:22 | 51.93128 | 7.30056 | 22418 ft | 400 kts | 33° |
| 2026-05-07 18:22 | 51.96213 | 7.33507 | 23177 ft | 405 kts | 33° |
| 2026-05-07 18:22 | 51.98510 | 7.36083 | 23725 ft | 408 kts | 33° |
| 2026-05-07 18:23 | 52.00852 | 7.38710 | 24020 ft | 411 kts | 33° |
| 2026-05-07 18:23 | 52.03203 | 7.41348 | 24090 ft | 411 kts | 33° |
| 2026-05-07 18:23 | 52.05559 | 7.43992 | 24108 ft | 411 kts | 33° |
| 2026-05-07 18:23 | 52.07912 | 7.46634 | 24109 ft | 411 kts | 33° |
| 2026-05-07 18:24 | 52.10264 | 7.49275 | 24111 ft | 410 kts | 33° |
| 2026-05-07 18:24 | 52.12610 | 7.51911 | 24110 ft | 410 kts | 33° |
| 2026-05-07 18:24 | 52.14961 | 7.54554 | 24112 ft | 410 kts | 33° |
| 2026-05-07 18:24 | 52.17314 | 7.57201 | 24111 ft | 410 kts | 33° |
| 2026-05-07 18:25 | 52.19670 | 7.59854 | 24305 ft | 413 kts | 33° |
| 2026-05-07 18:25 | 52.22050 | 7.62498 | 24812 ft | 415 kts | 32° |
| 2026-05-07 18:25 | 52.24475 | 7.65070 | 25287 ft | 417 kts | 31° |
| 2026-05-07 18:25 | 52.26939 | 7.67604 | 25742 ft | 420 kts | 31° |
| 2026-05-07 18:26 | 52.29426 | 7.70127 | 26182 ft | 422 kts | 31° |
| 2026-05-07 18:26 | 52.31929 | 7.72663 | 26612 ft | 425 kts | 31° |
| 2026-05-07 18:26 | 52.34445 | 7.75230 | 27032 ft | 427 kts | 31° |
| 2026-05-07 18:26 | 52.36966 | 7.77825 | 27444 ft | 430 kts | 31° |
| 2026-05-07 18:27 | 52.39496 | 7.80450 | 27853 ft | 432 kts | 31° |
| 2026-05-07 18:27 | 52.42039 | 7.83108 | 28258 ft | 435 kts | 32° |
| 2026-05-07 18:27 | 52.44595 | 7.85786 | 28668 ft | 437 kts | 32° |
| 2026-05-07 18:27 | 52.47163 | 7.88476 | 29072 ft | 439 kts | 32° |
| 2026-05-07 18:28 | 52.49746 | 7.91181 | 29462 ft | 442 kts | 32° |
| 2026-05-07 18:28 | 52.52347 | 7.93909 | 29860 ft | 444 kts | 32° |
| 2026-05-07 18:28 | 52.54956 | 7.96647 | 30223 ft | 446 kts | 32° |
| 2026-05-07 18:28 | 52.57579 | 7.99400 | 30550 ft | 449 kts | 32° |
| 2026-05-07 18:29 | 52.60182 | 8.02128 | 30865 ft | 451 kts | 32° |
| 2026-05-07 18:29 | 52.62836 | 8.04911 | 31172 ft | 453 kts | 32° |
| 2026-05-07 18:29 | 52.65497 | 8.07711 | 31488 ft | 455 kts | 32° |
| 2026-05-07 18:29 | 52.68170 | 8.10536 | 31855 ft | 456 kts | 32° |
| 2026-05-07 18:30 | 52.70835 | 8.13361 | 32315 ft | 454 kts | 32° |
| 2026-05-07 18:30 | 52.73489 | 8.16180 | 32759 ft | 453 kts | 32° |
| 2026-05-07 18:30 | 52.76178 | 8.19046 | 33055 ft | 454 kts | 32° |
| 2026-05-07 18:31 | 52.81475 | 8.24689 | 33103 ft | 452 kts | 32° |
| 2026-05-07 18:31 | 52.84039 | 8.27418 | 32725 ft | 438 kts | 32° |
| 2026-05-07 18:31 | 52.86568 | 8.30115 | 31945 ft | 428 kts | 32° |
| 2026-05-07 18:31 | 52.89048 | 8.32766 | 31122 ft | 421 kts | 32° |
| 2026-05-07 18:32 | 52.91489 | 8.35381 | 30311 ft | 415 kts | 32° |
| 2026-05-07 18:32 | 52.93897 | 8.37959 | 29408 ft | 409 kts | 32° |
| 2026-05-07 18:32 | 52.96278 | 8.40510 | 28508 ft | 404 kts | 32° |
| 2026-05-07 18:32 | 52.98622 | 8.43022 | 27677 ft | 399 kts | 32° |
| 2026-05-07 18:33 | 53.00982 | 8.45364 | 26882 ft | 392 kts | 22° |
| 2026-05-07 18:33 | 53.03577 | 8.46528 | 26146 ft | 384 kts | 6° |
| 2026-05-07 18:33 | 53.06223 | 8.46998 | 25361 ft | 381 kts | 4° |
| 2026-05-07 18:33 | 53.08850 | 8.47397 | 24619 ft | 377 kts | 4° |
| 2026-05-07 18:34 | 53.11444 | 8.47784 | 23887 ft | 373 kts | 4° |
| 2026-05-07 18:34 | 53.14021 | 8.48164 | 23075 ft | 369 kts | 4° |
| 2026-05-07 18:34 | 53.16559 | 8.48535 | 22236 ft | 364 kts | 4° |
| 2026-05-07 18:34 | 53.19069 | 8.48900 | 21424 ft | 359 kts | 4° |
| 2026-05-07 18:35 | 53.21546 | 8.49255 | 20634 ft | 355 kts | 4° |
| 2026-05-07 18:35 | 53.23994 | 8.49603 | 19864 ft | 351 kts | 4° |
| 2026-05-07 18:35 | 53.26414 | 8.49939 | 19115 ft | 346 kts | 4° |
| 2026-05-07 18:35 | 53.28780 | 8.50259 | 18395 ft | 342 kts | 4° |
| 2026-05-07 18:36 | 53.31162 | 8.50575 | 17574 ft | 338 kts | 4° |
| 2026-05-07 18:36 | 53.33499 | 8.50886 | 16790 ft | 334 kts | 4° |
| 2026-05-07 18:36 | 53.35807 | 8.51197 | 16017 ft | 331 kts | 4° |
| 2026-05-07 18:36 | 53.38050 | 8.51643 | 15274 ft | 327 kts | 14° |
| 2026-05-07 18:37 | 53.40149 | 8.53157 | 14565 ft | 324 kts | 34° |
| 2026-05-07 18:37 | 53.41777 | 8.55667 | 13847 ft | 322 kts | 49° |
| 2026-05-07 18:37 | 53.43251 | 8.58512 | 13296 ft | 323 kts | 49° |
| 2026-05-07 18:37 | 53.44707 | 8.61362 | 12902 ft | 321 kts | 49° |
| 2026-05-07 18:38 | 53.46148 | 8.64197 | 12514 ft | 318 kts | 49° |
| 2026-05-07 18:38 | 53.47574 | 8.67012 | 12131 ft | 316 kts | 49° |
| 2026-05-07 18:38 | 53.48990 | 8.69807 | 11753 ft | 313 kts | 49° |
| 2026-05-07 18:38 | 53.50398 | 8.72587 | 11377 ft | 311 kts | 49° |
| 2026-05-07 18:39 | 53.51792 | 8.75336 | 11116 ft | 306 kts | 49° |
| 2026-05-07 18:39 | 53.53182 | 8.78069 | 11100 ft | 309 kts | 49° |
| 2026-05-07 18:39 | 53.54581 | 8.80819 | 11104 ft | 310 kts | 49° |
| 2026-05-07 18:39 | 53.55984 | 8.83578 | 11108 ft | 310 kts | 49° |
| 2026-05-07 18:40 | 53.57384 | 8.86341 | 11108 ft | 310 kts | 49° |
| 2026-05-07 18:40 | 53.58784 | 8.89110 | 11106 ft | 310 kts | 49° |
| 2026-05-07 18:40 | 53.60181 | 8.91872 | 11109 ft | 310 kts | 49° |
| 2026-05-07 18:40 | 53.61578 | 8.94634 | 11110 ft | 310 kts | 49° |
| 2026-05-07 18:41 | 53.62977 | 8.97406 | 11110 ft | 310 kts | 50° |
| 2026-05-07 18:41 | 53.64375 | 9.00178 | 11016 ft | 310 kts | 50° |
| 2026-05-07 18:41 | 53.65764 | 9.02942 | 10869 ft | 309 kts | 50° |
| 2026-05-07 18:41 | 53.67150 | 9.05700 | 10706 ft | 308 kts | 50° |
| 2026-05-07 18:42 | 53.68531 | 9.08451 | 10437 ft | 306 kts | 50° |
| 2026-05-07 18:42 | 53.69899 | 9.11191 | 10164 ft | 303 kts | 51° |
| 2026-05-07 18:42 | 53.70899 | 9.14260 | 9885 ft | 297 kts | 74° |
| 2026-05-07 18:42 | 53.71032 | 9.17697 | 9493 ft | 295 kts | 100° |
| 2026-05-07 18:43 | 53.70282 | 9.20818 | 9126 ft | 292 kts | 126° |
| 2026-05-07 18:43 | 53.68824 | 9.23185 | 8755 ft | 291 kts | 142° |
| 2026-05-07 18:43 | 53.67194 | 9.25180 | 8385 ft | 289 kts | 144° |
| 2026-05-07 18:43 | 53.65543 | 9.27133 | 8017 ft | 287 kts | 144° |
| 2026-05-07 18:44 | 53.63910 | 9.29043 | 7659 ft | 285 kts | 144° |
| 2026-05-07 18:44 | 53.62373 | 9.31123 | 7301 ft | 282 kts | 130° |
| 2026-05-07 18:44 | 53.61181 | 9.33725 | 6953 ft | 280 kts | 124° |
| 2026-05-07 18:44 | 53.60049 | 9.36378 | 6607 ft | 278 kts | 124° |
| 2026-05-07 18:45 | 53.58923 | 9.39018 | 6253 ft | 276 kts | 124° |
| 2026-05-07 18:45 | 53.57814 | 9.41625 | 5963 ft | 272 kts | 124° |
| 2026-05-07 18:45 | 53.56794 | 9.44220 | 5701 ft | 266 kts | 117° |
| 2026-05-07 18:45 | 53.55979 | 9.46966 | 5440 ft | 256 kts | 114° |
| 2026-05-07 18:46 | 53.55234 | 9.49599 | 5165 ft | 242 kts | 114° |
| 2026-05-07 18:46 | 53.54525 | 9.52122 | 4887 ft | 237 kts | 114° |
| 2026-05-07 18:46 | 53.53825 | 9.54623 | 4597 ft | 235 kts | 114° |
| 2026-05-07 18:46 | 53.53133 | 9.57100 | 4309 ft | 233 kts | 114° |
| 2026-05-07 18:47 | 53.52479 | 9.59570 | 4020 ft | 230 kts | 107° |
| 2026-05-07 18:47 | 53.52120 | 9.62168 | 3750 ft | 227 kts | 100° |
| 2026-05-07 18:47 | 53.51848 | 9.64765 | 3520 ft | 224 kts | 99° |
| 2026-05-07 18:47 | 53.51585 | 9.67348 | 3285 ft | 224 kts | 99° |
| 2026-05-07 18:48 | 53.51514 | 9.69935 | 3053 ft | 222 kts | 80° |
| 2026-05-07 18:48 | 53.51871 | 9.72460 | 2821 ft | 221 kts | 75° |
| 2026-05-07 18:48 | 53.52293 | 9.74928 | 2599 ft | 217 kts | 74° |
| 2026-05-07 18:48 | 53.52711 | 9.77304 | 2502 ft | 207 kts | 74° |
| 2026-05-07 18:49 | 53.53351 | 9.79337 | 2502 ft | 195 kts | 52° |
| 2026-05-07 18:49 | 53.54221 | 9.81066 | 2407 ft | 189 kts | 52° |
| 2026-05-07 18:49 | 53.55045 | 9.82713 | 2225 ft | 185 kts | 52° |
| 2026-05-07 18:49 | 53.55857 | 9.84344 | 1968 ft | 179 kts | 52° |
| 2026-05-07 18:50 | 53.56641 | 9.85919 | 1723 ft | 171 kts | 52° |
| 2026-05-07 18:50 | 53.57386 | 9.87418 | 1498 ft | 164 kts | 52° |
| 2026-05-07 18:50 | 53.58108 | 9.88872 | 1286 ft | 158 kts | 52° |
| 2026-05-07 18:50 | 53.58779 | 9.90224 | 1074 ft | 145 kts | 52° |
| 2026-05-07 18:51 | 53.59395 | 9.91464 | 855 ft | 132 kts | 50° |
| 2026-05-07 18:51 | 53.59975 | 9.92635 | 694 ft | 130 kts | 51° |
| 2026-05-07 18:51 | 53.60548 | 9.93793 | 523 ft | 129 kts | 50° |
| 2026-05-07 18:51 | 53.61129 | 9.94947 | 349 ft | 128 kts | 49° |
| 2026-05-07 18:52 | 53.61698 | 9.96103 | 175 ft | 128 kts | 52° |
| 2026-05-07 18:52 | 53.62258 | 9.97254 | 50 ft | 123 kts | 51° |
| 2026-05-07 18:52 | 53.62735 | 9.98220 | 43 ft | 90 kts | 51° |
| 2026-05-07 18:52 | 53.63085 | 9.98930 | 46 ft | 70 kts | 50° |
| 2026-05-07 18:53 | 53.63286 | 9.99379 | 47 ft | 35 kts | 73° |
| 2026-05-07 18:53 | 53.63282 | 9.99604 | 48 ft | 8 kts | 99° |
| 2026-05-07 18:53 | 53.63280 | 9.99628 | 48 ft | 0 kts | 98° |
| 2026-05-07 18:54 | 53.63280 | 9.99630 | 48 ft | 2 kts | 98° |
| 2026-05-07 18:54 | 53.63273 | 9.99702 | 48 ft | 9 kts | 97° |
| 2026-05-07 18:54 | 53.63304 | 9.99813 | 48 ft | 14 kts | 50° |
| 2026-05-07 18:55 | 53.63374 | 9.99953 | 48 ft | 17 kts | 50° |
| 2026-05-07 18:55 | 53.63442 | 10.00121 | 48 ft | 16 kts | 79° |
| 2026-05-07 18:55 | 53.63448 | 10.00246 | 48 ft | 7 kts | 85° |
| 2026-05-07 18:55 | 53.63450 | 10.00309 | 48 ft | 4 kts | 86° |
| 2026-05-07 18:56 | 53.63451 | 10.00321 | 48 ft | 0 kts | 86° |